地図

経路データ

SID SEASON NUMBER BASIN SUBBASIN NAME ISO_TIME NATURE LAT LON WMO_WIND WMO_PRES WMO_AGENCY TRACK_TYPE DIST2LAND LANDFALL IFLAG USA_AGENCY USA_ATCF_ID USA_LAT USA_LON USA_RECORD USA_STATUS USA_WIND USA_PRES USA_SSHS USA_R34_NE USA_R34_SE USA_R34_SW USA_R34_NW USA_R50_NE USA_R50_SE USA_R50_SW USA_R50_NW USA_R64_NE USA_R64_SE USA_R64_SW USA_R64_NW USA_POCI USA_ROCI USA_RMW USA_EYE TOKYO_LAT TOKYO_LON TOKYO_GRADE TOKYO_WIND TOKYO_PRES TOKYO_R50_DIR TOKYO_R50_LONG TOKYO_R50_SHORT TOKYO_R30_DIR TOKYO_R30_LONG TOKYO_R30_SHORT TOKYO_LAND CMA_LAT CMA_LON CMA_CAT CMA_WIND CMA_PRES HKO_LAT HKO_LON HKO_CAT HKO_WIND HKO_PRES NEWDELHI_LAT NEWDELHI_LON NEWDELHI_GRADE NEWDELHI_WIND NEWDELHI_PRES NEWDELHI_CI NEWDELHI_DP NEWDELHI_POCI REUNION_LAT REUNION_LON REUNION_TYPE REUNION_WIND REUNION_PRES REUNION_TNUM REUNION_CI REUNION_RMW REUNION_R34_NE REUNION_R34_SE REUNION_R34_SW REUNION_R34_NW REUNION_R50_NE REUNION_R50_SE REUNION_R50_SW REUNION_R50_NW REUNION_R64_NE REUNION_R64_SE REUNION_R64_SW REUNION_R64_NW BOM_LAT BOM_LON BOM_TYPE BOM_WIND BOM_PRES BOM_TNUM BOM_CI BOM_RMW BOM_R34_NE BOM_R34_SE BOM_R34_SW BOM_R34_NW BOM_R50_NE BOM_R50_SE BOM_R50_SW BOM_R50_NW BOM_R64_NE BOM_R64_SE BOM_R64_SW BOM_R64_NW BOM_ROCI BOM_POCI BOM_EYE BOM_POS_METHOD BOM_PRES_METHOD NADI_LAT NADI_LON NADI_CAT NADI_WIND NADI_PRES WELLINGTON_LAT WELLINGTON_LON WELLINGTON_WIND WELLINGTON_PRES DS824_LAT DS824_LON DS824_STAGE DS824_WIND DS824_PRES TD9636_LAT TD9636_LON TD9636_STAGE TD9636_WIND TD9636_PRES TD9635_LAT TD9635_LON TD9635_WIND TD9635_PRES TD9635_ROCI NEUMANN_LAT NEUMANN_LON NEUMANN_CLASS NEUMANN_WIND NEUMANN_PRES MLC_LAT MLC_LON MLC_CLASS MLC_WIND MLC_PRES USA_GUST BOM_GUST BOM_GUST_PER REUNION_GUST REUNION_GUST_PER USA_SEAHGT USA_SEARAD_NE USA_SEARAD_SE USA_SEARAD_SW USA_SEARAD_NW STORM_SPEED STORM_DIR
1952359N09151 1952 105 WP MM NOT_NAMED 1952-12-23 18:00:00 TS 9.10000 150.700 main 1307 1292 __O___________ -1 9.10000 150.700 0 1006 12 276
1952359N09151 1952 105 WP MM NOT_NAMED 1952-12-23 21:00:00 TS 9.16018 150.103 main 1301 1287 __P___________ -1 9.16018 150.103 0 1006 12 275
1952359N09151 1952 105 WP MM NOT_NAMED 1952-12-24 00:00:00 TS 9.20000 149.500 main 1287 1277 __O___________ -1 9.20000 149.500 0 1006 12 272
1952359N09151 1952 105 WP MM NOT_NAMED 1952-12-24 03:00:00 TS 9.20744 148.892 main 1277 1270 __P___________ -1 9.20744 148.892 0 1006 12 270
1952359N09151 1952 105 WP MM NOT_NAMED 1952-12-24 06:00:00 TS 9.20000 148.300 main 1270 1266 __O___________ -1 9.20000 148.300 0 1006 11 270
1952359N09151 1952 105 WP MM NOT_NAMED 1952-12-24 09:00:00 TS 9.19985 147.750 main 1266 1255 __P___________ -1 9.19985 147.750 0 1005 8 264
1952359N09151 1952 105 WP MM NOT_NAMED 1952-12-24 12:00:00 TS 9.12000 147.480 main 1255 1255 __O_______O___ -1 9.20000 147.200 0 1005 8.80000 148.600 2 8 262
1952359N09151 1952 105 WP MM NOT_NAMED 1952-12-24 15:00:00 TS 9.07656 146.906 main 1255 1255 __P_______P___ -1 9.19990 146.615 0 1005 8.82989 147.488 2 13 267
1952359N09151 1952 105 WP MM NOT_NAMED 1952-12-24 18:00:00 TS 9.05698 146.180 main 1255 1255 __O_______P___ -1 9.20000 146.000 1 29 1005 8.86628 146.420 2 15 269
1952359N09151 1952 105 WP MM NOT_NAMED 1952-12-24 21:00:00 TS 9.05975 145.385 main 1262 1262 __P_______P___ -1 9.20007 145.328 1 29 1004 8.91943 145.442 2 15 272
1952359N09151 1952 105 WP MM NOT_NAMED 1952-12-25 00:00:00 TS 9.10000 144.650 main 1272 1274 __O_______O___ -1 9.20000 144.700 1 29 1003 9.00000 144.600 2 13 274
1952359N09151 1952 105 WP MM NOT_NAMED 1952-12-25 03:00:00 TS 9.15769 144.078 main 1296 1296 __P_______P___ -1 9.19976 144.235 1 33 1001 9.11563 143.921 2 11 277
1952359N09151 1952 105 WP MM NOT_NAMED 1952-12-25 06:00:00 TS 9.23029 143.583 main 1309 1309 __O_______P___ -1 9.20000 143.800 2 38 1000 9.26057 143.365 2 10 279
1952359N09151 1952 105 WP MM NOT_NAMED 1952-12-25 09:00:00 TS 9.31267 143.067 main 1335 1323 __P_______P___ -1 9.20001 143.258 2 38 1000 9.42532 142.877 2 10 279
1952359N09151 1952 105 WP MM NOT_NAMED 1952-12-25 12:00:00 TS 9.40000 142.550 main 1325 1313 __O_______O___ -1 9.20000 142.700 2 38 1000 9.60000 142.400 2 11 281
1952359N09151 1952 105 WP MM NOT_NAMED 1952-12-25 15:00:00 TS 9.51016 142.023 main 1313 1306 __P_______P___ -1 9.19983 142.208 2 38 1000 9.82049 141.838 2 11 282
1952359N09151 1952 105 WP MM NOT_NAMED 1952-12-25 18:00:00 TS 9.61992 141.489 main 1307 1301 __O_______P___ -1 9.20000 141.700 2 38 1000 10.0398 141.278 2 11 280
1952359N09151 1952 105 WP MM NOT_NAMED 1952-12-25 21:00:00 TS 9.70712 140.922 main 1300 1277 __P_______P___ -1 9.19997 141.115 2 38 1000 10.2143 140.729 2 11 277
1952359N09151 1952 105 WP MM NOT_NAMED 1952-12-26 00:00:00 TS 9.75000 140.350 main 1288 1253 __O_______O___ -1 9.20000 140.500 2 38 1000 10.3000 140.200 2 11 270
1952359N09151 1952 105 WP MM NOT_NAMED 1952-12-26 03:00:00 TS 9.71361 139.809 main 1253 1224 __P_______P___ -1 9.19236 139.907 2 38 1000 10.2349 139.711 2 11 264
1952359N09151 1952 105 WP MM NOT_NAMED 1952-12-26 06:00:00 TS 9.64094 139.271 main 1224 1207 __O_______P___ -1 9.20000 139.300 2 38 1000 10.0819 139.242 2 11 262
1952359N09151 1952 105 WP MM NOT_NAMED 1952-12-26 09:00:00 TS 9.56894 138.721 main 1204 1178 __P_______P___ -1 9.24988 138.665 2 38 999 9.88800 138.777 2 11 263
1952359N09151 1952 105 WP MM NOT_NAMED 1952-12-26 12:00:00 TS 9.50000 138.150 main 1178 1153 __O_______O___ -1 9.30000 138.000 2 38 998 9.70000 138.300 2 12 264
1952359N09151 1952 105 WP MM NOT_NAMED 1952-12-26 15:00:00 TS 9.43823 137.553 main 1153 1142 __P_______P___ -1 9.30749 137.292 2 38 998 9.56897 137.814 2 12 264
1952359N09151 1952 105 WP MM NOT_NAMED 1952-12-26 18:00:00 TS 9.37719 136.955 main 1142 1093 __O_______P___ -1 9.30000 136.600 2 38 998 9.45438 137.310 2 12 265
1952359N09151 1952 105 WP MM NOT_NAMED 1952-12-26 21:00:00 TS 9.33497 136.381 main 1093 1028 __P_______P___ -1 9.30732 135.985 2 38 998 9.36262 136.776 2 11 266
1952359N09151 1952 105 WP MM NOT_NAMED 1952-12-27 00:00:00 TS 9.30000 135.800 main 1028 963 __O_______O___ -1 9.30000 135.400 2 38 998 9.30000 136.200 2 12 267
1952359N09151 1952 105 WP MM NOT_NAMED 1952-12-27 03:00:00 TS 9.27240 135.190 main 963 898 __P_______P___ -1 9.25736 134.807 2 38 998 9.28743 135.573 2 12 268
1952359N09151 1952 105 WP MM NOT_NAMED 1952-12-27 06:00:00 TS 9.24994 134.552 main 896 820 __O_______P___ -1 9.20000 134.200 2 38 998 9.29987 134.903 2 13 268
1952359N09151 1952 105 WP MM NOT_NAMED 1952-12-27 09:00:00 TS 9.23491 133.878 main 820 745 __P_______P___ -1 9.15746 133.550 2 38 998 9.31235 134.207 2 13 268
1952359N09151 1952 105 WP MM NOT_NAMED 1952-12-27 12:00:00 TS 9.20000 133.200 main 745 678 __O_______O___ -1 9.10000 132.900 2 38 998 9.30000 133.500 2 13 265
1952359N09151 1952 105 WP MM NOT_NAMED 1952-12-27 15:00:00 TS 9.11244 132.523 main 668 601 __P_______P___ -1 8.99983 132.300 2 38 999 9.22505 132.746 2 14 262
1952359N09151 1952 105 WP MM NOT_NAMED 1952-12-27 18:00:00 TS 9.01155 131.847 main 590 524 __O_______P___ -1 8.90000 131.700 2 38 1000 9.12310 131.995 2 14 262
1952359N09151 1952 105 WP MM NOT_NAMED 1952-12-27 21:00:00 TS 8.92602 131.166 main 524 460 __P_______P___ -1 8.84253 131.035 2 38 1000 9.00950 131.296 2 13 263
1952359N09151 1952 105 WP MM NOT_NAMED 1952-12-28 00:00:00 TS 8.85000 130.550 main 460 404 __O_______O___ -1 8.80000 130.400 2 38 1000 8.90000 130.700 2 11 262
1952359N09151 1952 105 WP MM NOT_NAMED 1952-12-28 03:00:00 TS 8.77759 130.083 main 404 359 __P_______P___ -1 8.74234 129.878 2 38 1000 8.81285 130.288 2 9 261
1952359N09151 1952 105 WP MM NOT_NAMED 1952-12-28 06:00:00 TS 8.71694 129.688 main 359 317 __O_______P___ -1 8.70000 129.400 2 38 1000 8.73387 129.975 2 8 263
1952359N09151 1952 105 WP MM NOT_NAMED 1952-12-28 09:00:00 TS 8.67772 129.300 main 317 277 __P_______P___ -1 8.69244 128.900 2 38 1000 8.66301 129.700 2 8 265
1952359N09151 1952 105 WP MM NOT_NAMED 1952-12-28 12:00:00 TS 8.65000 128.900 main 277 232 __O_______O___ -1 8.70000 128.400 2 38 1000 8.60000 129.400 2 8 266
1952359N09151 1952 105 WP MM NOT_NAMED 1952-12-28 15:00:00 TS 8.61492 128.481 main 232 190 __P_______P___ -1 8.69990 127.908 2 38 1000 8.52993 129.055 2 9 266
1952359N09151 1952 105 WP MM NOT_NAMED 1952-12-28 18:00:00 TS 8.58442 128.032 main 179 136 __O_______P___ -1 8.70000 127.400 2 38 1000 8.46884 128.665 2 9 267
1952359N09151 1952 105 WP MM NOT_NAMED 1952-12-28 21:00:00 TS 8.56542 127.525 main 125 74 __P_______P___ -1 8.70745 126.858 2 38 1000 8.42339 128.192 2 11 268
1952359N09151 1952 105 WP MM NOT_NAMED 1952-12-29 00:00:00 TS 8.55000 126.950 main 74 15 __O_______O___ -1 8.70000 126.300 2 38 1000 8.40000 127.600 2 12 269
1952359N09151 1952 105 WP MM NOT_NAMED 1952-12-29 03:00:00 TS 8.53627 126.318 main 11 0 __P_______P___ -1 8.66481 125.773 2 33 1001 8.40773 126.863 2 13 269
1952359N09151 1952 105 WP MM NOT_NAMED 1952-12-29 06:00:00 TS 8.51760 125.604 main 0 0 __O_______P___ -1 8.60000 125.200 1 29 1002 8.43520 126.007 2 15 268
1952359N09151 1952 105 WP MM NOT_NAMED 1952-12-29 09:00:00 TS 8.48115 124.812 main 0 0 __P_______P___ -1 8.49231 124.552 1 29 1002 8.47000 125.073 2 16 268
1952359N09151 1952 105 WP MM NOT_NAMED 1952-12-29 12:00:00 TS 8.45000 123.950 main 22 0 __O_______O___ -1 8.40000 123.800 1 29 1002 8.50000 124.100 2 18 269
1952359N09151 1952 105 WP MM NOT_NAMED 1952-12-29 15:00:00 TS 8.43462 122.998 main 0 0 __P_______P___ -1 8.37758 122.915 1 29 1002 8.49166 123.081 2 19 270
1952359N09151 1952 105 WP MM NOT_NAMED 1952-12-29 18:00:00 TS 8.43933 122.022 main 49 49 __O_______P___ -1 8.40000 122.000 1 29 1002 8.47865 122.045 2 19 271
1952359N09151 1952 105 WP MM NOT_NAMED 1952-12-29 21:00:00 TS 8.45932 121.101 main 133 133 __P_______P___ -1 8.44248 121.140 1 33 1001 8.47616 121.062 2 17 272
1952359N09151 1952 105 WP MM NOT_NAMED 1952-12-30 00:00:00 TS 8.50000 120.300 main 212 156 __O_______O___ -1 8.50000 120.400 2 38 1000 8.50000 120.200 2 14 274
1952359N09151 1952 105 WP MM NOT_NAMED 1952-12-30 03:00:00 TS 8.55751 119.692 main 156 117 __P_______P___ -1 8.55723 119.855 2 38 1000 8.55780 119.530 2 11 276
1952359N09151 1952 105 WP MM NOT_NAMED 1952-12-30 06:00:00 TS 8.62300 119.193 main 117 71 __O_______P___ -1 8.60000 119.400 2 38 1000 8.64600 118.985 2 10 277
1952359N09151 1952 105 WP MM NOT_NAMED 1952-12-30 09:00:00 TS 8.68060 118.712 main 71 39 __P_______P___ -1 8.59994 118.900 2 38 1000 8.76126 118.523 2 9 278
1952359N09151 1952 105 WP MM NOT_NAMED 1952-12-30 12:00:00 TS 8.75000 118.250 main 34 0 __O_______O___ -1 8.60000 118.400 2 38 1000 8.90000 118.100 2 10 280
1952359N09151 1952 105 WP MM NOT_NAMED 1952-12-30 15:00:00 TS 8.84787 117.759 main 0 0 __P_______P___ -1 8.64244 117.900 2 38 1000 9.05331 117.618 2 10 283
1952359N09151 1952 105 WP MM NOT_NAMED 1952-12-30 18:00:00 TS 8.96369 117.284 main 24 24 __O_______P___ -1 8.70000 117.400 2 38 1000 9.22739 117.168 2 10 284
1952359N09151 1952 105 WP MM NOT_NAMED 1952-12-30 21:00:00 TS 9.08511 116.826 main 78 78 __P_______P___ -1 8.75746 116.893 2 33 1001 9.41276 116.759 2 9 285
1952359N09151 1952 105 WP MM NOT_NAMED 1952-12-31 00:00:00 TS 9.20000 116.400 main 119 119 __O_______O___ -1 8.80000 116.400 1 29 1002 9.60000 116.400 2 8 285
1952359N09151 1952 105 WP MM NOT_NAMED 1952-12-31 03:00:00 TS 9.29518 116.007 main 163 163 __P_______P___ -1 8.80742 115.942 1 29 1002 9.78294 116.071 2 8 284
1952359N09151 1952 105 WP MM NOT_NAMED 1952-12-31 06:00:00 TS 9.38240 115.647 main 207 207 __O_______P___ -1 8.80000 115.500 1 29 1002 9.96480 115.795 2 7 284
1952359N09151 1952 105 WP MM NOT_NAMED 1952-12-31 09:00:00 TS 9.46959 115.314 main 241 241 __P_______P___ -1 8.79992 115.058 1 29 1002 10.1393 115.571 2 7 285
1952359N09151 1952 105 WP MM NOT_NAMED 1952-12-31 12:00:00 TS 9.55000 115.000 main 276 276 __O_______O___ -1 8.80000 114.600 1 29 1003 10.3000 115.400 2 6 284
1952359N09151 1952 105 WP MM NOT_NAMED 1952-12-31 15:00:00 TS 9.62125 114.693 main 306 306 __P_______P___ -1 8.79996 114.107 1 29 1003 10.4425 115.279 2 7 271
1952359N09151 1952 105 WP MM NOT_NAMED 1952-12-31 18:00:00 TS 9.55859 114.285 main 348 348 __O_______P___ -1 8.80000 113.600 1 29 1003 10.5700 115.197 2 9 258
1952359N09151 1952 105 WP MM NOT_NAMED 1952-12-31 21:00:00 TS 9.42911 113.786 main 393 393 __P_______P___ -1 8.79990 113.107 1 29 1003 10.6875 115.142 2 12 253
1952359N09151 1952 105 WP MM NOT_NAMED 1953-01-01 00:00:00 TS 9.20000 113.100 main 462 447 __O_______O___ -1 8.80000 112.600 1 29 1004 10.8000 115.100 7 18 250
1952359N09151 1952 105 WP MM NOT_NAMED 1953-01-01 03:00:00 TS 8.79245 112.057 main 447 399 __P___________ -1 8.79245 112.057 1 29 1004 7 16 256
1952359N09151 1952 105 WP MM NOT_NAMED 1953-01-01 06:00:00 TS 8.80000 111.500 main 399 364 __O___________ -1 8.80000 111.500 1 29 1005 7 11 273
1952359N09151 1952 105 WP MM NOT_NAMED 1953-01-01 09:00:00 TS 8.84995 110.943 main 357 317 __P___________ -1 8.84995 110.943 1 29 1005 7 11 275
1952359N09151 1952 105 WP MM NOT_NAMED 1953-01-01 12:00:00 TS 8.90000 110.400 main 317 284 __O___________ -1 8.90000 110.400 1 29 1005 10 273
1952359N09151 1952 105 WP MM NOT_NAMED 1953-01-01 15:00:00 TS 8.90737 109.900 main 284 253 __P___________ -1 8.90737 109.900 1 1005 10 270
1952359N09151 1952 105 WP MM NOT_NAMED 1953-01-01 18:00:00 TS 8.90000 109.400 main 253 224 __O___________ -1 8.90000 109.400 0 1005 10 269
1952359N09151 1952 105 WP MM NOT_NAMED 1953-01-01 21:00:00 TS 8.89771 108.863 main 224 200 __P___________ -1 8.89771 108.863 0 1005 11 270
1952359N09151 1952 105 WP MM NOT_NAMED 1953-01-02 00:00:00 TS 8.90000 108.300 main 200 __O___________ -1 8.90000 108.300 0 1005 11 270

デジタル台風データ・検索

IBTrACS Databaseについて

本データベースは、米国NOAAが公開する1842年以降の世界の熱帯低気圧のベストトラックデータアーカイブInternational Best Track Archive for Climate Stewardship (IBTrACS)を、ウェブで閲覧しやすい形式に変換したものです。

最終更新日:2021-12-06